createdAt,value
2022-10-19T00:01:16.538Z,20.42
2022-10-19T00:03:46.402Z,19.33
2022-10-19T00:06:25.984Z,19.70
2022-10-19T00:09:04.653Z,17.60
2022-10-19T00:11:35.197Z,17.63
2022-10-19T00:14:02.376Z,15.60
2022-10-19T00:16:34.010Z,16.52
2022-10-19T00:19:05.353Z,19.15
2022-10-19T00:21:33.007Z,18.52
2022-10-19T00:23:59.746Z,14.68
2022-10-19T00:26:27.081Z,14.73
2022-10-19T00:28:55.856Z,15.40
2022-10-19T00:31:23.571Z,21.40
2022-10-19T00:33:50.645Z,14.55
2022-10-19T00:36:27.235Z,13.75
2022-10-19T00:38:55.874Z,12.75
2022-10-19T00:41:26.582Z,13.05
2022-10-19T00:43:59.766Z,16.55
2022-10-19T00:46:30.422Z,13.02
2022-10-19T00:49:13.786Z,14.70
2022-10-19T00:51:47.965Z,12.68
2022-10-19T00:54:17.666Z,12.70
2022-10-19T00:56:48.958Z,12.18
2022-10-19T00:59:21.031Z,11.38
2022-10-19T01:01:49.920Z,13.85
2022-10-19T01:04:18.221Z,13.45
2022-10-19T01:06:45.526Z,14.45
2022-10-19T01:09:12.461Z,14.43
2022-10-19T01:12:03.806Z,12.90
2022-10-19T01:15:15.107Z,15.32
2022-10-19T01:18:31.580Z,21.10
2022-10-19T01:21:17.512Z,12.38
2022-10-19T01:24:21.574Z,13.80
2022-10-19T01:27:24.505Z,19.13
2022-10-19T01:30:01.922Z,14.98
2022-10-19T01:32:55.987Z,16.45
2022-10-19T01:35:46.519Z,17.52
2022-10-19T01:38:44.580Z,20.23
2022-10-19T01:41:20.245Z,21.85
2022-10-19T01:44:19.163Z,19.92
2022-10-19T01:47:04.396Z,21.70
2022-10-19T01:50:01.462Z,20.15
2022-10-19T01:52:31.734Z,18.48
2022-10-19T01:55:04.394Z,17.13
2022-10-19T01:57:41.100Z,24.20
2022-10-19T02:00:13.061Z,20.45
2022-10-19T02:02:46.590Z,20.10
2022-10-19T02:05:17.225Z,20.25
2022-10-19T02:07:51.309Z,26.88
2022-10-19T02:10:20.269Z,23.35
2022-10-19T02:12:49.693Z,22.98
2022-10-19T02:15:22.629Z,24.50
2022-10-19T02:17:56.980Z,26.17
2022-10-19T02:20:24.408Z,26.43
2022-10-19T02:22:51.545Z,27.27
2022-10-19T02:25:19.293Z,28.10
2022-10-19T02:27:46.395Z,25.27
2022-10-19T02:30:19.536Z,30.42
2022-10-19T02:32:46.532Z,28.35
2022-10-19T02:35:15.479Z,32.08
2022-10-19T02:37:43.231Z,32.67
2022-10-19T02:40:11.447Z,31.35
2022-10-19T02:43:14.902Z,30.98
2022-10-19T02:46:00.300Z,27.55
2022-10-19T02:48:31.320Z,25.20
2022-10-19T02:50:58.237Z,31.35
2022-10-19T02:53:25.210Z,29.95
2022-10-19T02:55:52.245Z,27.65
2022-10-19T02:58:19.282Z,26.60
2022-10-19T03:00:46.129Z,27.38
2022-10-19T03:03:13.211Z,25.23
2022-10-19T03:05:40.105Z,27.73
2022-10-19T03:08:07.125Z,25.27
2022-10-19T03:10:34.004Z,25.30
2022-10-19T03:13:00.983Z,27.58
2022-10-19T03:15:29.954Z,26.58
2022-10-19T03:17:57.411Z,27.63
2022-10-19T03:20:24.381Z,20.75
2022-10-19T03:25:18.672Z,19.33
2022-10-19T03:27:45.884Z,19.48
2022-10-19T03:30:12.936Z,23.08
2022-10-19T03:32:40.021Z,18.75
2022-10-19T03:35:07.713Z,18.38
2022-10-19T03:37:35.075Z,17.92
2022-10-19T03:40:02.446Z,19.45
2022-10-19T03:42:29.620Z,15.13
2022-10-19T03:44:56.511Z,18.00
2022-10-19T03:47:23.748Z,16.60
2022-10-19T03:49:50.725Z,15.23
2022-10-19T03:52:19.440Z,16.38
2022-10-19T03:54:50.904Z,16.02
2022-10-19T03:57:18.410Z,20.60
2022-10-19T03:59:45.248Z,14.63
2022-10-19T04:02:12.248Z,17.20
2022-10-19T04:04:39.082Z,15.80
2022-10-19T04:07:06.036Z,14.80
2022-10-19T04:09:32.897Z,15.38
2022-10-19T04:11:59.879Z,14.60
2022-10-19T04:14:32.272Z,15.25
2022-10-19T04:17:04.426Z,15.43
2022-10-19T04:19:32.960Z,15.30
2022-10-19T04:22:00.249Z,17.10
2022-10-19T04:24:27.735Z,13.15
2022-10-19T04:26:56.110Z,13.68
2022-10-19T04:29:29.557Z,13.90
2022-10-19T04:31:57.890Z,11.77
2022-10-19T04:34:25.227Z,16.17
2022-10-19T04:36:53.503Z,16.20
2022-10-19T04:39:20.483Z,14.13
2022-10-19T04:41:47.418Z,15.80
2022-10-19T04:44:14.379Z,16.10
2022-10-19T04:46:41.391Z,16.55
2022-10-19T04:49:08.157Z,15.73
2022-10-19T04:51:35.432Z,15.23
2022-10-19T04:54:03.990Z,13.27
2022-10-19T04:56:32.369Z,15.50
2022-10-19T04:59:00.794Z,15.95
2022-10-19T05:01:31.077Z,15.13
2022-10-19T05:04:01.572Z,15.45
2022-10-19T05:06:31.347Z,15.32
2022-10-19T05:08:58.742Z,17.67
2022-10-19T05:11:27.306Z,16.70
2022-10-19T05:13:54.526Z,15.55
2022-10-19T05:16:25.941Z,12.15
2022-10-19T05:18:56.816Z,16.55
2022-10-19T05:21:24.901Z,14.52
2022-10-19T05:23:54.058Z,12.95
2022-10-19T05:26:24.972Z,19.05
2022-10-19T05:29:01.587Z,15.55
2022-10-19T05:31:32.398Z,14.10
2022-10-19T05:34:00.473Z,17.90
2022-10-19T05:36:38.607Z,15.38
2022-10-19T05:39:14.605Z,17.10
2022-10-19T05:41:45.399Z,17.20
2022-10-19T05:44:17.661Z,13.02
2022-10-19T05:46:45.349Z,16.50
2022-10-19T05:49:15.356Z,12.85
2022-10-19T05:51:43.403Z,12.95
2022-10-19T05:54:12.110Z,16.60
2022-10-19T05:56:40.944Z,19.15
2022-10-19T05:59:13.829Z,17.40
2022-10-19T06:01:40.872Z,18.52
2022-10-19T06:04:08.021Z,16.63
2022-10-19T06:06:35.143Z,17.40
2022-10-19T06:09:03.049Z,13.93
2022-10-19T06:11:35.093Z,13.98
2022-10-19T06:14:06.491Z,15.73
2022-10-19T06:16:34.816Z,20.80
2022-10-19T06:19:01.637Z,19.40
2022-10-19T06:21:31.689Z,18.92
2022-10-19T06:24:05.106Z,19.75
2022-10-19T06:26:34.334Z,19.85
2022-10-19T06:29:02.803Z,16.33
2022-10-19T06:31:33.203Z,16.05
2022-10-19T06:34:00.458Z,17.88
2022-10-19T06:36:30.626Z,16.42
2022-10-19T06:38:59.772Z,17.75
2022-10-19T06:41:27.106Z,13.82
2022-10-19T06:43:56.162Z,15.30
2022-10-19T06:46:25.783Z,18.35
2022-10-19T06:49:01.824Z,15.82
2022-10-19T06:51:32.056Z,17.88
2022-10-19T06:53:58.986Z,18.38
2022-10-19T06:56:27.319Z,32.85
2022-10-19T06:58:55.019Z,34.70
2022-10-19T07:01:23.405Z,38.50
2022-10-19T07:03:52.280Z,38.10
2022-10-19T07:06:20.632Z,46.47
2022-10-19T07:08:47.940Z,72.65
2022-10-19T07:11:18.579Z,28.20
2022-10-19T07:13:45.703Z,33.85
2022-10-19T07:16:19.817Z,21.63
2022-10-19T07:18:51.660Z,16.60
2022-10-19T07:21:21.910Z,14.43
2022-10-19T07:23:50.475Z,15.02
2022-10-19T07:26:27.743Z,17.80
2022-10-19T07:28:57.491Z,14.57
2022-10-19T07:31:27.075Z,13.82
2022-10-19T07:34:01.004Z,15.77
2022-10-19T07:36:32.025Z,15.70
2022-10-19T07:39:01.999Z,13.10
2022-10-19T07:41:29.125Z,15.50
2022-10-19T07:43:57.864Z,13.00
2022-10-19T07:46:33.766Z,13.57
2022-10-19T07:49:00.906Z,19.00
2022-10-19T07:53:57.495Z,13.88
2022-10-19T07:56:27.465Z,11.70
2022-10-19T07:58:57.611Z,14.18
2022-10-19T08:01:29.268Z,12.57
2022-10-19T08:04:55.496Z,11.85
2022-10-19T08:06:46.225Z,9.88
2022-10-19T08:09:27.656Z,11.52
2022-10-19T08:12:00.252Z,13.25
2022-10-19T08:14:27.473Z,11.35
2022-10-19T08:16:54.471Z,13.05
2022-10-19T08:19:22.657Z,13.20
2022-10-19T08:21:50.165Z,11.48
2022-10-19T08:24:19.840Z,13.00
2022-10-19T08:26:51.183Z,17.95
2022-10-19T08:29:21.653Z,9.60
2022-10-19T08:31:50.302Z,9.63
2022-10-19T08:34:17.516Z,9.57
2022-10-19T08:36:45.003Z,8.35
2022-10-19T08:39:12.804Z,7.78
2022-10-19T08:41:39.954Z,12.52
2022-10-19T08:44:09.338Z,8.95
2022-10-19T08:46:51.698Z,8.98
2022-10-19T08:49:23.600Z,4.95
2022-10-19T08:52:00.838Z,8.70
2022-10-19T08:55:00.992Z,9.27
2022-10-19T08:58:20.797Z,8.60
2022-10-19T09:01:05.683Z,5.32
2022-10-19T09:03:55.875Z,4.35
2022-10-19T09:06:41.204Z,5.05
2022-10-19T09:09:14.585Z,5.63
2022-10-19T09:11:48.095Z,11.30
2022-10-19T09:14:47.413Z,6.75
2022-10-19T09:17:17.168Z,6.63
2022-10-19T09:19:44.410Z,7.03
2022-10-19T09:22:32.713Z,5.45
2022-10-19T09:25:32.354Z,4.40
2022-10-19T09:28:19.591Z,10.35
2022-10-19T09:30:52.264Z,4.72
2022-10-19T09:33:38.726Z,5.30
2022-10-19T09:36:08.164Z,8.75
2022-10-19T09:38:35.179Z,7.10
2022-10-19T09:41:18.645Z,4.28
2022-10-19T09:43:53.407Z,8.57
2022-10-19T09:49:04.335Z,10.48
2022-10-19T09:51:52.150Z,6.90
2022-10-19T09:54:26.881Z,7.78
2022-10-19T09:56:56.180Z,4.68
2022-10-19T09:59:28.905Z,6.72
2022-10-19T10:02:20.886Z,5.80
2022-10-19T10:05:16.296Z,11.20
2022-10-19T10:07:43.949Z,8.38
2022-10-19T10:10:26.780Z,5.15
2022-10-19T10:12:59.845Z,9.13
2022-10-19T10:15:35.738Z,4.97
2022-10-19T10:18:03.904Z,4.78
2022-10-19T10:20:32.612Z,5.40
2022-10-19T10:23:04.535Z,3.30
2022-10-19T10:25:36.167Z,6.75
2022-10-19T10:28:24.588Z,4.70
2022-10-19T10:31:08.756Z,4.28
2022-10-19T10:33:45.033Z,3.38
2022-10-19T10:36:13.202Z,5.15
2022-10-19T10:38:49.871Z,4.38
2022-10-19T10:41:23.273Z,4.68
2022-10-19T10:44:06.840Z,3.85
2022-10-19T10:46:47.424Z,8.30
2022-10-19T10:49:30.115Z,4.75
2022-10-19T10:52:03.952Z,6.68
2022-10-19T10:54:33.326Z,6.47
2022-10-19T10:57:13.755Z,3.80
2022-10-19T10:59:45.651Z,2.25
2022-10-19T11:02:39.580Z,7.10
2022-10-19T11:05:29.450Z,6.47
2022-10-19T11:08:14.573Z,7.22
2022-10-19T11:11:09.055Z,5.43
2022-10-19T11:13:49.233Z,5.18
2022-10-19T11:16:22.007Z,3.75
2022-10-19T11:19:19.271Z,4.50
2022-10-19T11:22:04.523Z,2.63
2022-10-19T11:24:52.186Z,7.53
2022-10-19T11:27:46.635Z,5.10
2022-10-19T11:30:19.391Z,3.42
2022-10-19T11:33:24.963Z,6.10
2022-10-19T11:35:59.412Z,3.05
2022-10-19T11:39:04.694Z,15.07
2022-10-19T11:41:58.969Z,3.83
2022-10-19T11:44:36.064Z,4.78
2022-10-19T11:47:22.799Z,3.85
2022-10-19T11:50:11.729Z,3.17
2022-10-19T11:53:25.616Z,3.15
2022-10-19T11:56:19.428Z,11.88
2022-10-19T11:58:55.010Z,8.02
2022-10-19T12:01:50.980Z,3.65
2022-10-19T12:07:33.413Z,3.53
2022-10-19T12:10:39.356Z,3.38
2022-10-19T12:15:46.657Z,7.72
2022-10-19T12:18:36.821Z,3.53
2022-10-19T12:21:17.484Z,3.15
2022-10-19T12:23:49.544Z,5.90
2022-10-19T12:26:21.493Z,2.65
2022-10-19T12:29:00.627Z,3.85
2022-10-19T12:31:29.547Z,3.22
2022-10-19T12:34:08.091Z,3.20
2022-10-19T12:37:14.699Z,6.20
2022-10-19T12:40:12.135Z,3.88
2022-10-19T12:42:58.180Z,1.98
2022-10-19T12:45:33.494Z,2.38
2022-10-19T12:48:12.399Z,7.45
2022-10-19T12:50:48.725Z,4.60
2022-10-19T12:53:49.402Z,7.30
2022-10-19T12:56:26.846Z,4.18
2022-10-19T12:59:01.615Z,1.60
2022-10-19T13:04:22.674Z,3.25
2022-10-19T13:07:04.520Z,3.15
2022-10-19T13:09:48.301Z,3.88
2022-10-19T13:12:19.282Z,1.77
2022-10-19T13:15:03.361Z,3.13
2022-10-19T13:17:37.097Z,3.88
2022-10-19T13:20:13.305Z,8.50
2022-10-19T13:22:49.029Z,2.65
2022-10-19T13:25:34.331Z,2.03
2022-10-19T13:30:41.790Z,2.05
2022-10-19T13:33:33.427Z,5.28
2022-10-19T13:36:00.339Z,2.78
2022-10-19T13:38:42.630Z,7.18
2022-10-19T13:41:21.912Z,2.28
2022-10-19T13:44:19.268Z,1.33
2022-10-19T13:47:10.126Z,2.50
2022-10-19T13:50:37.185Z,4.47
2022-10-19T13:53:46.668Z,2.88
2022-10-19T13:56:46.787Z,1.45
2022-10-19T14:00:00.425Z,3.85
2022-10-19T14:03:07.947Z,2.88
2022-10-19T14:06:33.100Z,1.60
2022-10-19T14:09:20.865Z,2.35
2022-10-19T14:11:52.711Z,2.05
2022-10-19T14:14:22.602Z,2.70
2022-10-19T14:16:56.074Z,3.78
2022-10-19T14:19:31.586Z,2.92
2022-10-19T14:22:02.025Z,4.95
2022-10-19T14:24:36.346Z,1.25
2022-10-19T14:27:07.793Z,2.67
2022-10-19T14:29:48.176Z,2.75
2022-10-19T14:32:26.718Z,1.73
2022-10-19T14:35:27.101Z,0.90
2022-10-19T14:37:54.834Z,1.30
2022-10-19T14:40:26.797Z,4.63
2022-10-19T14:42:57.657Z,1.95
2022-10-19T14:45:30.771Z,13.48
2022-10-19T14:48:06.445Z,2.17
2022-10-19T14:50:47.280Z,4.25
2022-10-19T14:53:40.633Z,5.78
2022-10-19T14:56:19.879Z,2.08
2022-10-19T14:59:24.975Z,1.48
2022-10-19T15:01:56.905Z,4.30
2022-10-19T15:04:36.959Z,3.80
2022-10-19T15:07:16.857Z,1.95
2022-10-19T15:10:01.253Z,1.48
2022-10-19T15:12:42.913Z,6.38
2022-10-19T15:15:25.286Z,2.65
2022-10-19T15:18:00.213Z,2.55
2022-10-19T15:20:49.147Z,1.60
2022-10-19T15:23:46.147Z,1.52
2022-10-19T15:26:29.278Z,1.00
2022-10-19T15:29:22.168Z,4.60
2022-10-19T15:31:49.061Z,2.22
2022-10-19T15:34:25.720Z,2.00
2022-10-19T15:37:01.563Z,4.40
2022-10-19T15:39:41.172Z,2.15
2022-10-19T15:42:39.436Z,3.40
2022-10-19T15:45:38.627Z,3.33
2022-10-19T15:48:55.521Z,4.38
2022-10-19T15:51:25.796Z,4.28
2022-10-19T15:54:04.977Z,2.30
2022-10-19T15:56:38.629Z,3.13
2022-10-19T15:59:21.090Z,4.40
2022-10-19T16:01:55.053Z,3.65
2022-10-19T16:04:23.102Z,2.85
2022-10-19T16:06:50.143Z,2.60
2022-10-19T16:09:21.303Z,9.55
2022-10-19T16:11:49.155Z,1.30
2022-10-19T16:16:44.183Z,3.35
2022-10-19T16:19:11.238Z,3.85
2022-10-19T16:21:38.355Z,2.17
2022-10-19T16:24:05.678Z,3.90
2022-10-19T16:26:32.787Z,2.22
2022-10-19T16:29:01.654Z,4.30
2022-10-19T16:31:28.922Z,1.55
2022-10-19T16:33:55.825Z,1.42
2022-10-19T16:36:22.845Z,2.08
2022-10-19T16:38:49.918Z,2.40
2022-10-19T16:41:17.483Z,1.63
2022-10-19T16:43:44.361Z,1.67
2022-10-19T16:46:11.859Z,2.63
2022-10-19T16:48:38.663Z,2.97
2022-10-19T16:51:05.565Z,4.10
2022-10-19T16:53:36.752Z,2.75
2022-10-19T16:56:07.098Z,1.98
2022-10-19T16:58:34.069Z,2.30
2022-10-19T17:01:10.658Z,2.90
2022-10-19T17:03:37.780Z,4.75
2022-10-19T17:06:07.806Z,2.10
2022-10-19T17:09:02.333Z,1.38
2022-10-19T17:11:26.220Z,1.63
2022-10-19T17:13:58.674Z,1.15
2022-10-19T17:16:33.825Z,3.60
2022-10-19T17:19:05.766Z,2.92
2022-10-19T17:21:39.693Z,3.42
2022-10-19T17:24:14.700Z,1.92
2022-10-19T17:26:47.986Z,1.77
2022-10-19T17:29:14.839Z,4.57
2022-10-19T17:31:42.706Z,1.92
2022-10-19T17:34:10.704Z,1.60
2022-10-19T17:36:41.432Z,2.30
2022-10-19T17:39:14.672Z,2.95
2022-10-19T17:41:41.862Z,2.33
2022-10-19T17:44:08.683Z,2.17
2022-10-19T17:46:36.353Z,3.13
2022-10-19T17:49:04.799Z,3.40
2022-10-19T17:51:35.821Z,3.80
2022-10-19T17:54:11.007Z,2.97
2022-10-19T17:56:40.215Z,3.45
2022-10-19T17:59:09.088Z,4.55
2022-10-19T18:01:37.416Z,2.92
2022-10-19T18:04:05.746Z,4.70
2022-10-19T18:06:37.190Z,2.05
2022-10-19T18:09:08.897Z,2.10
2022-10-19T18:11:44.952Z,1.83
2022-10-19T18:14:13.177Z,2.42
2022-10-19T18:16:45.475Z,86.60
2022-10-19T18:19:16.179Z,68.25
2022-10-19T18:21:46.573Z,11.80
2022-10-19T18:24:19.808Z,8.43
2022-10-19T18:26:50.164Z,9.45
2022-10-19T18:29:21.791Z,4.22
2022-10-19T18:31:52.384Z,5.88
2022-10-19T18:34:25.408Z,2.92
2022-10-19T18:36:54.018Z,3.90
2022-10-19T18:39:21.254Z,16.98
2022-10-19T18:41:54.492Z,5.10
2022-10-19T18:44:27.255Z,6.22
2022-10-19T18:46:57.469Z,4.90
2022-10-19T18:49:25.099Z,4.97
2022-10-19T18:51:55.311Z,9.57
2022-10-19T18:54:26.471Z,11.07
2022-10-19T18:56:54.856Z,4.55
2022-10-19T18:59:22.549Z,3.35
2022-10-19T19:01:49.944Z,3.75
2022-10-19T19:04:16.914Z,2.40
2022-10-19T19:06:45.540Z,5.07
2022-10-19T19:09:13.387Z,3.50
2022-10-19T19:11:42.898Z,5.30
2022-10-19T19:14:17.324Z,5.35
2022-10-19T19:16:46.063Z,3.07
2022-10-19T19:19:20.683Z,3.97
2022-10-19T19:24:23.193Z,3.97
2022-10-19T19:26:53.727Z,5.22
2022-10-19T19:29:22.342Z,4.97
2022-10-19T19:31:50.276Z,6.45
2022-10-19T19:34:18.172Z,5.13
2022-10-19T19:36:49.081Z,3.65
2022-10-19T19:39:21.041Z,4.53
2022-10-19T19:41:50.037Z,4.65
2022-10-19T19:44:17.656Z,6.82
2022-10-19T19:46:44.838Z,8.73
2022-10-19T19:49:12.190Z,6.65
2022-10-19T19:51:39.462Z,4.20
2022-10-19T19:54:06.558Z,7.68
2022-10-19T19:56:33.819Z,10.77
2022-10-19T19:59:03.778Z,7.85
2022-10-19T20:01:32.716Z,5.72
2022-10-19T20:06:31.376Z,4.68
2022-10-19T20:08:58.426Z,6.45
2022-10-19T20:11:28.433Z,7.65
2022-10-19T20:13:55.994Z,6.22
2022-10-19T20:16:29.222Z,7.82
2022-10-19T20:19:13.601Z,7.07
2022-10-19T20:21:41.942Z,6.00
2022-10-19T20:24:09.828Z,10.50
2022-10-19T20:26:36.952Z,8.15
2022-10-19T20:29:05.335Z,14.50
2022-10-19T20:31:38.835Z,8.38
2022-10-19T20:34:13.744Z,11.18
2022-10-19T20:36:41.343Z,11.00
2022-10-19T20:39:09.826Z,9.10
2022-10-19T20:41:37.169Z,8.65
2022-10-19T20:44:04.610Z,8.07
2022-10-19T20:46:32.153Z,8.55
2022-10-19T20:49:01.595Z,14.73
2022-10-19T20:51:36.515Z,9.55
2022-10-19T20:54:07.191Z,8.82
2022-10-19T20:56:37.568Z,12.43
2022-10-19T20:59:14.634Z,8.90
2022-10-19T21:01:43.587Z,9.07
2022-10-19T21:04:13.395Z,11.57
2022-10-19T21:06:44.417Z,9.77
2022-10-19T21:09:14.782Z,14.80
2022-10-19T21:11:43.771Z,8.80
2022-10-19T21:14:17.900Z,9.35
2022-10-19T21:16:45.774Z,7.43
2022-10-19T21:19:21.377Z,7.75
2022-10-19T21:21:55.430Z,9.98
2022-10-19T21:24:26.985Z,8.80
2022-10-19T21:26:54.705Z,8.23
2022-10-19T21:29:21.796Z,10.27
2022-10-19T21:31:53.263Z,6.63
2022-10-19T21:34:25.240Z,7.10
2022-10-19T21:36:52.924Z,10.30
2022-10-19T21:39:20.444Z,8.30
2022-10-19T21:41:48.746Z,5.97
2022-10-19T21:44:17.699Z,8.35
2022-10-19T21:46:48.086Z,10.65
2022-10-19T21:49:16.440Z,9.95
2022-10-19T21:51:54.495Z,9.75
2022-10-19T21:54:25.199Z,8.90
2022-10-19T21:56:53.408Z,7.82
2022-10-19T21:59:20.419Z,8.43
2022-10-19T22:01:47.616Z,6.78
2022-10-19T22:04:17.866Z,8.85
2022-10-19T22:06:45.353Z,10.18
2022-10-19T22:09:19.624Z,7.47
2022-10-19T22:11:46.826Z,10.70
2022-10-19T22:14:16.059Z,11.43
2022-10-19T22:16:43.126Z,10.60
2022-10-19T22:19:10.630Z,16.15
2022-10-19T22:24:09.939Z,14.55
2022-10-19T22:26:42.526Z,11.50
2022-10-19T22:29:09.663Z,12.27
2022-10-19T22:31:37.513Z,11.50
2022-10-19T22:34:08.898Z,9.27
2022-10-19T22:36:36.426Z,9.90
2022-10-19T22:39:04.518Z,12.27
2022-10-19T22:42:46.985Z,8.30
2022-10-19T22:45:13.789Z,10.23
2022-10-19T22:47:40.921Z,12.07
2022-10-19T22:50:11.670Z,12.00
2022-10-19T22:52:39.145Z,13.35
2022-10-19T22:55:06.466Z,11.65
2022-10-19T22:57:33.898Z,10.73
2022-10-19T23:00:00.741Z,11.35
2022-10-19T23:02:29.452Z,12.68
2022-10-19T23:04:56.372Z,13.93
2022-10-19T23:07:23.729Z,10.88
2022-10-19T23:09:50.611Z,13.38
2022-10-19T23:12:17.658Z,12.85
2022-10-19T23:14:44.532Z,16.08
2022-10-19T23:17:11.527Z,15.50
2022-10-19T23:19:38.581Z,15.38
2022-10-19T23:22:05.660Z,12.63
2022-10-19T23:24:32.557Z,15.60
2022-10-19T23:26:59.669Z,20.60
2022-10-19T23:29:26.821Z,16.63
2022-10-19T23:31:53.958Z,15.57
2022-10-19T23:34:21.205Z,13.40
2022-10-19T23:36:48.320Z,14.10
2022-10-19T23:39:15.252Z,14.02
2022-10-19T23:41:42.302Z,18.88
2022-10-19T23:44:10.302Z,15.35
2022-10-19T23:46:37.213Z,15.82
2022-10-19T23:49:04.055Z,12.45
2022-10-19T23:51:31.003Z,14.65
2022-10-19T23:53:57.898Z,12.63
2022-10-19T23:56:28.536Z,13.70
2022-10-19T23:58:56.388Z,11.35
